createdAt,value
2023-03-29T00:03:02.553Z,10.88
2023-03-29T00:08:05.746Z,10.27
2023-03-29T00:13:08.612Z,9.63
2023-03-29T00:18:12.795Z,12.73
2023-03-29T00:23:15.968Z,13.88
2023-03-29T00:28:18.959Z,10.55
2023-03-29T00:33:23.172Z,9.85
2023-03-29T00:38:26.342Z,15.88
2023-03-29T00:43:29.208Z,11.15
2023-03-29T00:48:33.540Z,13.88
2023-03-29T00:53:39.662Z,11.77
2023-03-29T00:58:45.838Z,15.07
2023-03-29T01:03:54.386Z,15.93
2023-03-29T01:08:59.588Z,12.02
2023-03-29T01:14:04.728Z,11.93
2023-03-29T01:19:11.679Z,15.13
2023-03-29T01:24:41.951Z,11.55
2023-03-29T01:29:49.042Z,14.40
2023-03-29T01:34:56.564Z,14.95
2023-03-29T01:39:59.552Z,10.75
2023-03-29T01:45:09.912Z,12.43
2023-03-29T01:50:15.873Z,15.35
2023-03-29T01:55:21.811Z,16.42
2023-03-29T02:00:27.742Z,14.02
2023-03-29T02:05:31.603Z,11.73
2023-03-29T02:10:35.370Z,14.70
2023-03-29T02:15:40.849Z,15.00
2023-03-29T02:20:47.304Z,18.07
2023-03-29T02:25:53.469Z,15.30
2023-03-29T02:31:04.716Z,12.93
2023-03-29T02:36:14.448Z,16.48
2023-03-29T02:41:17.993Z,21.25
2023-03-29T02:46:22.562Z,17.27
2023-03-29T02:51:27.441Z,17.50
2023-03-29T02:56:30.619Z,17.63
2023-03-29T03:01:36.759Z,16.63
2023-03-29T03:06:39.966Z,20.35
2023-03-29T03:11:42.862Z,15.13
2023-03-29T03:16:47.303Z,20.77
2023-03-29T03:21:50.994Z,22.88
2023-03-29T03:26:54.476Z,23.50
2023-03-29T03:31:58.665Z,22.45
2023-03-29T03:37:20.111Z,22.17
2023-03-29T03:42:23.124Z,18.35
2023-03-29T03:47:27.334Z,19.53
2023-03-29T03:52:32.847Z,19.90
2023-03-29T03:57:37.522Z,23.02
2023-03-29T04:02:42.876Z,24.40
2023-03-29T04:07:45.907Z,23.57
2023-03-29T04:13:08.998Z,23.08
2023-03-29T04:18:34.426Z,21.13
2023-03-29T04:23:37.777Z,12.98
2023-03-29T04:28:41.894Z,15.38
2023-03-29T04:33:53.397Z,18.20
2023-03-29T04:38:56.969Z,11.70
2023-03-29T04:44:03.514Z,16.48
2023-03-29T04:49:08.970Z,15.83
2023-03-29T04:54:15.752Z,15.75
2023-03-29T04:59:41.443Z,18.13
2023-03-29T05:04:56.856Z,22.65
2023-03-29T05:10:00.803Z,17.35
2023-03-29T05:15:03.913Z,20.58
2023-03-29T05:20:11.777Z,18.45
2023-03-29T05:25:17.513Z,24.20
2023-03-29T05:30:20.782Z,20.80
2023-03-29T05:35:36.040Z,30.35
2023-03-29T05:40:42.780Z,26.53
2023-03-29T05:46:04.610Z,21.70
2023-03-29T05:51:09.881Z,20.65
2023-03-29T05:56:16.045Z,26.83
2023-03-29T06:01:19.470Z,24.73
2023-03-29T06:06:35.765Z,27.52
2023-03-29T06:11:39.331Z,38.60
2023-03-29T06:17:02.733Z,26.67
2023-03-29T06:22:07.123Z,25.60
2023-03-29T06:27:10.661Z,25.33
2023-03-29T06:32:13.841Z,28.27
2023-03-29T06:37:27.676Z,27.65
2023-03-29T06:42:43.339Z,29.60
2023-03-29T06:48:24.710Z,30.40
2023-03-29T06:53:29.222Z,26.95
2023-03-29T06:58:36.703Z,31.67
2023-03-29T07:03:47.476Z,31.80
2023-03-29T07:08:59.529Z,32.40
2023-03-29T07:14:30.874Z,32.20
2023-03-29T07:19:34.795Z,36.03
2023-03-29T07:25:02.224Z,39.60
2023-03-29T07:30:11.143Z,33.22
2023-03-29T07:35:17.691Z,37.13
2023-03-29T07:40:23.937Z,39.67
2023-03-29T07:45:33.293Z,40.97
2023-03-29T07:50:42.032Z,36.73
2023-03-29T07:55:49.149Z,32.35
2023-03-29T08:01:30.251Z,43.90
2023-03-29T08:06:55.326Z,42.67
2023-03-29T08:12:05.249Z,45.55
2023-03-29T08:17:12.092Z,51.28
2023-03-29T08:22:22.045Z,41.83
2023-03-29T08:27:54.572Z,52.67
2023-03-29T08:33:16.196Z,45.80
2023-03-29T08:38:21.740Z,51.88
2023-03-29T08:43:56.321Z,60.17
2023-03-29T08:49:13.183Z,67.97
2023-03-29T08:54:20.538Z,70.72
2023-03-29T08:59:45.579Z,72.77
2023-03-29T09:04:52.445Z,66.60
2023-03-29T09:10:17.580Z,70.13
2023-03-29T09:15:27.802Z,55.83
2023-03-29T09:21:08.457Z,53.72
2023-03-29T09:26:19.561Z,54.78
2023-03-29T09:31:43.401Z,50.42
2023-03-29T09:36:51.365Z,53.50
2023-03-29T09:41:58.101Z,45.33
2023-03-29T09:47:04.611Z,51.22
2023-03-29T09:52:13.833Z,52.03
2023-03-29T09:57:21.362Z,43.77
2023-03-29T10:02:30.700Z,56.97
2023-03-29T10:07:44.666Z,54.67
2023-03-29T10:12:51.749Z,57.13
2023-03-29T10:18:00.826Z,49.60
2023-03-29T10:23:06.365Z,47.87
2023-03-29T10:28:13.099Z,55.78
2023-03-29T10:33:21.223Z,55.95
2023-03-29T10:38:25.913Z,56.90
2023-03-29T10:43:32.241Z,64.75
2023-03-29T10:48:37.314Z,65.40
2023-03-29T10:53:40.257Z,63.83
2023-03-29T10:58:56.386Z,65.65
2023-03-29T11:04:19.413Z,48.60
2023-03-29T11:09:27.726Z,50.57
2023-03-29T11:14:39.933Z,48.13
2023-03-29T11:19:55.281Z,50.28
2023-03-29T11:25:11.162Z,84.32
2023-03-29T11:30:18.809Z,83.22
2023-03-29T11:35:34.713Z,84.88
2023-03-29T11:40:46.287Z,84.03
2023-03-29T11:45:53.476Z,89.03
2023-03-29T11:51:00.967Z,84.50
2023-03-29T11:56:10.232Z,76.55
2023-03-29T12:01:15.028Z,75.70
2023-03-29T12:06:22.652Z,72.72
2023-03-29T12:11:31.166Z,79.67
2023-03-29T12:16:37.217Z,74.30
2023-03-29T12:21:42.651Z,66.18
2023-03-29T12:26:57.784Z,59.85
2023-03-29T12:32:15.969Z,53.93
2023-03-29T12:37:38.186Z,46.38
2023-03-29T12:43:03.993Z,42.07
2023-03-29T12:48:31.829Z,45.85
2023-03-29T12:53:37.754Z,47.33
2023-03-29T12:58:51.719Z,41.53
2023-03-29T13:03:58.742Z,45.93
2023-03-29T13:09:05.733Z,46.03
2023-03-29T13:14:14.321Z,45.33
2023-03-29T13:19:28.262Z,37.80
2023-03-29T13:24:42.111Z,38.67
2023-03-29T13:29:53.473Z,45.15
2023-03-29T13:35:00.704Z,38.15
2023-03-29T13:40:45.346Z,36.33
2023-03-29T13:46:19.851Z,47.90
2023-03-29T13:51:29.271Z,52.63
2023-03-29T13:56:35.689Z,65.13
2023-03-29T14:01:45.887Z,60.17
2023-03-29T14:07:14.423Z,64.97
2023-03-29T14:12:20.389Z,61.17
2023-03-29T14:17:26.046Z,47.83
2023-03-29T14:22:32.456Z,46.50
2023-03-29T14:27:37.109Z,54.97
2023-03-29T14:32:41.431Z,42.63
2023-03-29T14:37:44.528Z,43.97
2023-03-29T14:42:48.478Z,44.08
2023-03-29T14:47:53.102Z,43.08
2023-03-29T14:52:57.816Z,47.92
2023-03-29T14:58:01.305Z,39.87
2023-03-29T15:03:14.170Z,33.15
2023-03-29T15:08:20.637Z,37.90
2023-03-29T15:13:25.232Z,40.90
2023-03-29T15:18:32.050Z,45.47
2023-03-29T15:23:39.415Z,50.08
2023-03-29T15:28:49.640Z,59.22
2023-03-29T15:34:04.031Z,61.20
2023-03-29T15:39:10.718Z,55.10
2023-03-29T15:44:17.382Z,66.20
2023-03-29T15:49:21.897Z,68.00
2023-03-29T15:54:24.977Z,59.88
2023-03-29T15:59:27.955Z,53.95
2023-03-29T16:04:32.178Z,56.28
2023-03-29T16:09:35.536Z,58.10
2023-03-29T16:14:38.378Z,54.60
2023-03-29T16:19:42.653Z,56.73
2023-03-29T16:24:45.649Z,57.50
2023-03-29T16:29:48.541Z,57.05
2023-03-29T16:34:53.839Z,58.70
2023-03-29T16:39:58.144Z,60.65
2023-03-29T16:45:02.230Z,59.70
2023-03-29T16:50:08.136Z,65.13
2023-03-29T16:55:12.740Z,64.23
2023-03-29T17:00:19.512Z,72.82
2023-03-29T17:05:25.296Z,72.35
2023-03-29T17:10:28.219Z,75.53
2023-03-29T17:15:31.365Z,85.53
2023-03-29T17:20:35.685Z,79.90
2023-03-29T17:25:38.735Z,84.53
2023-03-29T17:30:41.815Z,86.43
2023-03-29T17:35:46.246Z,89.22
2023-03-29T17:40:53.185Z,85.90
2023-03-29T17:45:56.286Z,87.28
2023-03-29T17:51:00.431Z,84.15
2023-03-29T17:56:03.526Z,78.50
2023-03-29T18:01:10.542Z,74.40
2023-03-29T18:06:16.685Z,73.30
2023-03-29T18:11:23.831Z,65.93
2023-03-29T18:16:26.855Z,60.90
2023-03-29T18:21:31.045Z,60.45
2023-03-29T18:26:33.897Z,55.03
2023-03-29T18:31:36.874Z,57.28
2023-03-29T18:36:41.174Z,51.40
2023-03-29T18:41:43.965Z,45.13
2023-03-29T18:46:48.019Z,43.28
2023-03-29T18:51:52.292Z,42.25
2023-03-29T18:56:57.859Z,39.63
2023-03-29T19:02:01.921Z,34.42
2023-03-29T19:07:06.820Z,37.85
2023-03-29T19:12:09.841Z,34.88
2023-03-29T19:17:12.712Z,34.92
2023-03-29T19:22:17.356Z,41.90
2023-03-29T19:27:20.324Z,35.35
2023-03-29T19:32:23.053Z,35.05
2023-03-29T19:37:27.327Z,36.43
2023-03-29T19:42:30.274Z,29.42
2023-03-29T19:47:33.204Z,32.90
2023-03-29T19:52:37.416Z,29.90
2023-03-29T19:57:40.160Z,36.50
2023-03-29T20:02:42.954Z,33.28
2023-03-29T20:07:47.141Z,40.88
2023-03-29T20:12:50.960Z,35.88
2023-03-29T20:17:55.326Z,39.92
2023-03-29T20:23:05.184Z,37.47
2023-03-29T20:28:08.584Z,38.93
2023-03-29T20:33:11.392Z,33.43
2023-03-29T20:38:15.810Z,23.77
2023-03-29T20:43:20.081Z,22.95
2023-03-29T20:48:24.742Z,20.40
2023-03-29T20:53:34.574Z,21.48
2023-03-29T20:58:41.794Z,19.52
2023-03-29T21:03:44.711Z,21.00
2023-03-29T21:08:50.401Z,21.25
2023-03-29T21:13:53.889Z,20.85
2023-03-29T21:18:56.688Z,17.80
2023-03-29T21:24:00.762Z,19.23
2023-03-29T21:29:03.660Z,22.15
2023-03-29T21:34:06.489Z,19.23
2023-03-29T21:39:10.883Z,18.45
2023-03-29T21:44:13.860Z,18.83
2023-03-29T21:49:16.662Z,18.38
2023-03-29T21:54:20.817Z,20.05
2023-03-29T21:59:23.614Z,18.83
2023-03-29T22:04:35.771Z,16.05
2023-03-29T22:09:42.317Z,18.90
2023-03-29T22:14:45.321Z,16.58
2023-03-29T22:19:48.056Z,19.50
2023-03-29T22:24:54.744Z,16.83
2023-03-29T22:29:58.609Z,17.93
2023-03-29T22:35:01.538Z,19.00
2023-03-29T22:40:09.044Z,14.70
2023-03-29T22:45:12.238Z,16.37
2023-03-29T22:50:15.112Z,16.58
2023-03-29T22:55:19.293Z,15.05
2023-03-29T23:00:22.411Z,16.42
2023-03-29T23:05:25.288Z,16.83
2023-03-29T23:10:30.562Z,13.60
2023-03-29T23:15:33.952Z,20.27
2023-03-29T23:20:36.780Z,17.73
2023-03-29T23:25:41.426Z,14.10
2023-03-29T23:30:44.527Z,12.25
2023-03-29T23:35:47.440Z,16.80
2023-03-29T23:40:58.975Z,14.65
2023-03-29T23:46:03.650Z,12.50
2023-03-29T23:51:08.145Z,9.15
2023-03-29T23:56:12.627Z,19.00
